sensor_id;sensor_type;location;lat;lon;timestamp;temperature;humidity
12434;DHT22;6281;49.038;8.372;2023-08-07T00:00:47;13.60;99.90
12434;DHT22;6281;49.038;8.372;2023-08-07T00:03:18;13.60;99.90
12434;DHT22;6281;49.038;8.372;2023-08-07T00:05:45;13.60;99.90
12434;DHT22;6281;49.038;8.372;2023-08-07T00:08:12;13.60;99.90
12434;DHT22;6281;49.038;8.372;2023-08-07T00:10:39;13.60;99.90
12434;DHT22;6281;49.038;8.372;2023-08-07T00:13:06;13.60;99.90
12434;DHT22;6281;49.038;8.372;2023-08-07T00:15:33;13.60;99.90
12434;DHT22;6281;49.038;8.372;2023-08-07T00:18:00;13.60;99.90
12434;DHT22;6281;49.038;8.372;2023-08-07T00:20:28;13.60;99.90
12434;DHT22;6281;49.038;8.372;2023-08-07T00:22:55;13.60;99.90
12434;DHT22;6281;49.038;8.372;2023-08-07T00:25:22;13.60;99.90
12434;DHT22;6281;49.038;8.372;2023-08-07T00:27:49;13.60;99.90
12434;DHT22;6281;49.038;8.372;2023-08-07T00:30:16;13.50;99.90
12434;DHT22;6281;49.038;8.372;2023-08-07T00:32:43;13.60;99.90
12434;DHT22;6281;49.038;8.372;2023-08-07T00:35:09;13.60;99.90
12434;DHT22;6281;49.038;8.372;2023-08-07T00:37:38;13.60;99.90
12434;DHT22;6281;49.038;8.372;2023-08-07T00:40:06;13.60;99.90
12434;DHT22;6281;49.038;8.372;2023-08-07T00:42:33;13.50;99.90
12434;DHT22;6281;49.038;8.372;2023-08-07T00:45:00;13.50;99.90
12434;DHT22;6281;49.038;8.372;2023-08-07T00:47:28;13.60;99.90
12434;DHT22;6281;49.038;8.372;2023-08-07T00:49:57;13.60;99.90
12434;DHT22;6281;49.038;8.372;2023-08-07T00:52:25;13.50;99.90
12434;DHT22;6281;49.038;8.372;2023-08-07T00:54:53;13.50;99.90
12434;DHT22;6281;49.038;8.372;2023-08-07T00:57:20;13.50;99.90
12434;DHT22;6281;49.038;8.372;2023-08-07T00:59:48;13.50;99.90
12434;DHT22;6281;49.038;8.372;2023-08-07T01:02:15;13.50;99.90
12434;DHT22;6281;49.038;8.372;2023-08-07T01:04:42;13.50;99.90
12434;DHT22;6281;49.038;8.372;2023-08-07T01:07:09;13.50;99.90
12434;DHT22;6281;49.038;8.372;2023-08-07T01:09:36;13.50;99.90
12434;DHT22;6281;49.038;8.372;2023-08-07T01:12:13;13.40;99.90
12434;DHT22;6281;49.038;8.372;2023-08-07T01:14:49;13.40;99.90
12434;DHT22;6281;49.038;8.372;2023-08-07T01:17:17;13.30;99.90
12434;DHT22;6281;49.038;8.372;2023-08-07T01:19:47;13.30;99.90
12434;DHT22;6281;49.038;8.372;2023-08-07T01:22:18;13.30;99.90
12434;DHT22;6281;49.038;8.372;2023-08-07T01:24:48;13.30;99.90
12434;DHT22;6281;49.038;8.372;2023-08-07T01:27:24;13.40;99.90
12434;DHT22;6281;49.038;8.372;2023-08-07T01:29:57;13.30;99.90
12434;DHT22;6281;49.038;8.372;2023-08-07T01:32:29;13.30;99.90
12434;DHT22;6281;49.038;8.372;2023-08-07T01:35:01;13.40;99.90
12434;DHT22;6281;49.038;8.372;2023-08-07T01:37:34;13.30;99.90
12434;DHT22;6281;49.038;8.372;2023-08-07T01:40:02;13.40;99.90
12434;DHT22;6281;49.038;8.372;2023-08-07T01:42:30;13.30;99.90
12434;DHT22;6281;49.038;8.372;2023-08-07T01:44:57;13.30;99.90
12434;DHT22;6281;49.038;8.372;2023-08-07T01:47:24;13.20;99.90
12434;DHT22;6281;49.038;8.372;2023-08-07T01:49:51;13.20;99.90
12434;DHT22;6281;49.038;8.372;2023-08-07T01:52:19;13.10;99.90
12434;DHT22;6281;49.038;8.372;2023-08-07T01:54:48;13.10;99.90
12434;DHT22;6281;49.038;8.372;2023-08-07T01:57:15;13.00;99.90
12434;DHT22;6281;49.038;8.372;2023-08-07T01:59:41;13.00;99.90
12434;DHT22;6281;49.038;8.372;2023-08-07T02:02:10;13.00;99.90
12434;DHT22;6281;49.038;8.372;2023-08-07T02:04:37;13.10;99.90
12434;DHT22;6281;49.038;8.372;2023-08-07T02:07:04;13.00;99.90
12434;DHT22;6281;49.038;8.372;2023-08-07T02:09:31;13.00;99.90
12434;DHT22;6281;49.038;8.372;2023-08-07T02:11:59;13.00;99.90
12434;DHT22;6281;49.038;8.372;2023-08-07T02:14:27;13.00;99.90
12434;DHT22;6281;49.038;8.372;2023-08-07T02:16:53;12.90;99.90
12434;DHT22;6281;49.038;8.372;2023-08-07T02:19:20;12.90;99.90
12434;DHT22;6281;49.038;8.372;2023-08-07T02:21:47;12.90;99.90
12434;DHT22;6281;49.038;8.372;2023-08-07T02:24:14;12.70;99.90
12434;DHT22;6281;49.038;8.372;2023-08-07T02:26:41;12.70;99.90
12434;DHT22;6281;49.038;8.372;2023-08-07T02:29:09;12.70;99.90
12434;DHT22;6281;49.038;8.372;2023-08-07T02:31:36;12.70;99.90
12434;DHT22;6281;49.038;8.372;2023-08-07T02:34:03;12.60;99.90
12434;DHT22;6281;49.038;8.372;2023-08-07T02:36:30;12.60;99.90
12434;DHT22;6281;49.038;8.372;2023-08-07T02:38:57;12.60;99.90
12434;DHT22;6281;49.038;8.372;2023-08-07T02:41:23;12.50;99.90
12434;DHT22;6281;49.038;8.372;2023-08-07T02:44:04;12.60;99.90
12434;DHT22;6281;49.038;8.372;2023-08-07T02:46:32;12.60;99.90
12434;DHT22;6281;49.038;8.372;2023-08-07T02:49:01;12.50;99.90
12434;DHT22;6281;49.038;8.372;2023-08-07T02:51:28;12.40;99.90
12434;DHT22;6281;49.038;8.372;2023-08-07T02:53:55;12.40;99.90
12434;DHT22;6281;49.038;8.372;2023-08-07T02:56:22;12.40;99.90
12434;DHT22;6281;49.038;8.372;2023-08-07T02:58:49;12.40;99.90
12434;DHT22;6281;49.038;8.372;2023-08-07T03:01:16;12.40;99.90
12434;DHT22;6281;49.038;8.372;2023-08-07T03:03:44;12.40;99.90
12434;DHT22;6281;49.038;8.372;2023-08-07T03:06:11;12.30;99.90
12434;DHT22;6281;49.038;8.372;2023-08-07T03:08:38;12.20;99.90
12434;DHT22;6281;49.038;8.372;2023-08-07T03:11:05;12.30;99.90
12434;DHT22;6281;49.038;8.372;2023-08-07T03:13:32;12.20;99.90
12434;DHT22;6281;49.038;8.372;2023-08-07T03:15:59;12.20;99.90
12434;DHT22;6281;49.038;8.372;2023-08-07T03:18:26;12.20;99.90
12434;DHT22;6281;49.038;8.372;2023-08-07T03:20:55;12.20;99.90
12434;DHT22;6281;49.038;8.372;2023-08-07T03:23:22;12.20;99.90
12434;DHT22;6281;49.038;8.372;2023-08-07T03:25:49;12.20;99.90
12434;DHT22;6281;49.038;8.372;2023-08-07T03:28:16;12.30;99.90
12434;DHT22;6281;49.038;8.372;2023-08-07T03:30:43;12.30;99.90
12434;DHT22;6281;49.038;8.372;2023-08-07T03:33:10;12.30;99.90
12434;DHT22;6281;49.038;8.372;2023-08-07T03:35:37;12.30;99.90
12434;DHT22;6281;49.038;8.372;2023-08-07T03:38:05;12.20;99.90
12434;DHT22;6281;49.038;8.372;2023-08-07T03:40:33;12.30;99.90
12434;DHT22;6281;49.038;8.372;2023-08-07T03:43:06;12.40;99.90
12434;DHT22;6281;49.038;8.372;2023-08-07T03:45:33;12.40;99.90
12434;DHT22;6281;49.038;8.372;2023-08-07T03:48:00;12.40;99.90
12434;DHT22;6281;49.038;8.372;2023-08-07T03:50:27;12.40;99.90
12434;DHT22;6281;49.038;8.372;2023-08-07T03:52:55;12.40;99.90
12434;DHT22;6281;49.038;8.372;2023-08-07T03:55:23;12.30;99.90
12434;DHT22;6281;49.038;8.372;2023-08-07T03:57:50;12.50;99.90
12434;DHT22;6281;49.038;8.372;2023-08-07T04:00:17;12.40;99.90
12434;DHT22;6281;49.038;8.372;2023-08-07T04:02:46;12.40;99.90
12434;DHT22;6281;49.038;8.372;2023-08-07T04:05:13;12.40;99.90
12434;DHT22;6281;49.038;8.372;2023-08-07T04:07:40;12.50;99.90
12434;DHT22;6281;49.038;8.372;2023-08-07T04:10:07;12.40;99.90
12434;DHT22;6281;49.038;8.372;2023-08-07T04:12:35;12.40;99.90
12434;DHT22;6281;49.038;8.372;2023-08-07T04:15:03;12.40;99.90
12434;DHT22;6281;49.038;8.372;2023-08-07T04:17:30;12.40;99.90
12434;DHT22;6281;49.038;8.372;2023-08-07T04:19:57;12.50;99.90
12434;DHT22;6281;49.038;8.372;2023-08-07T04:22:24;12.40;99.90
12434;DHT22;6281;49.038;8.372;2023-08-07T04:24:50;12.50;99.90
12434;DHT22;6281;49.038;8.372;2023-08-07T04:27:17;12.50;99.90
12434;DHT22;6281;49.038;8.372;2023-08-07T04:29:45;12.50;99.90
12434;DHT22;6281;49.038;8.372;2023-08-07T04:32:12;12.50;99.90
12434;DHT22;6281;49.038;8.372;2023-08-07T04:34:39;12.50;99.90
12434;DHT22;6281;49.038;8.372;2023-08-07T04:37:06;12.40;99.90
12434;DHT22;6281;49.038;8.372;2023-08-07T04:39:33;12.50;99.90
12434;DHT22;6281;49.038;8.372;2023-08-07T04:42:01;12.40;99.90
12434;DHT22;6281;49.038;8.372;2023-08-07T04:44:57;12.50;99.90
12434;DHT22;6281;49.038;8.372;2023-08-07T04:47:24;12.60;99.90
12434;DHT22;6281;49.038;8.372;2023-08-07T04:49:51;12.50;99.90
12434;DHT22;6281;49.038;8.372;2023-08-07T04:52:18;12.50;99.90
12434;DHT22;6281;49.038;8.372;2023-08-07T04:54:45;12.50;99.90
12434;DHT22;6281;49.038;8.372;2023-08-07T04:57:11;12.60;99.90
12434;DHT22;6281;49.038;8.372;2023-08-07T04:59:38;12.70;99.90
12434;DHT22;6281;49.038;8.372;2023-08-07T05:02:07;12.70;99.90
12434;DHT22;6281;49.038;8.372;2023-08-07T05:04:34;12.70;99.90
12434;DHT22;6281;49.038;8.372;2023-08-07T05:07:01;12.70;99.90
12434;DHT22;6281;49.038;8.372;2023-08-07T05:09:27;12.60;99.90
12434;DHT22;6281;49.038;8.372;2023-08-07T05:11:54;12.70;99.90
12434;DHT22;6281;49.038;8.372;2023-08-07T05:14:21;12.70;99.90
12434;DHT22;6281;49.038;8.372;2023-08-07T05:16:48;12.70;99.90
12434;DHT22;6281;49.038;8.372;2023-08-07T05:19:17;12.70;99.90
12434;DHT22;6281;49.038;8.372;2023-08-07T05:21:43;12.80;99.90
12434;DHT22;6281;49.038;8.372;2023-08-07T05:24:15;12.80;99.90
12434;DHT22;6281;49.038;8.372;2023-08-07T05:26:42;12.80;99.90
12434;DHT22;6281;49.038;8.372;2023-08-07T05:29:46;12.80;99.90
12434;DHT22;6281;49.038;8.372;2023-08-07T05:32:13;12.80;99.90
12434;DHT22;6281;49.038;8.372;2023-08-07T05:34:42;12.80;99.90
12434;DHT22;6281;49.038;8.372;2023-08-07T05:37:09;12.80;99.90
12434;DHT22;6281;49.038;8.372;2023-08-07T05:39:36;12.80;99.90
12434;DHT22;6281;49.038;8.372;2023-08-07T05:42:03;12.90;99.90
12434;DHT22;6281;49.038;8.372;2023-08-07T05:44:30;12.90;99.90
12434;DHT22;6281;49.038;8.372;2023-08-07T05:46:57;12.90;99.90
12434;DHT22;6281;49.038;8.372;2023-08-07T05:49:24;13.00;99.90
12434;DHT22;6281;49.038;8.372;2023-08-07T05:51:54;13.00;99.90
12434;DHT22;6281;49.038;8.372;2023-08-07T05:54:21;13.10;99.90
12434;DHT22;6281;49.038;8.372;2023-08-07T05:56:48;13.10;99.90
12434;DHT22;6281;49.038;8.372;2023-08-07T05:59:15;13.20;99.90
12434;DHT22;6281;49.038;8.372;2023-08-07T06:01:42;13.20;99.90
12434;DHT22;6281;49.038;8.372;2023-08-07T06:04:09;13.20;99.90
12434;DHT22;6281;49.038;8.372;2023-08-07T06:06:36;13.20;99.90
12434;DHT22;6281;49.038;8.372;2023-08-07T06:09:06;13.20;99.90
12434;DHT22;6281;49.038;8.372;2023-08-07T06:11:33;13.20;99.90
12434;DHT22;6281;49.038;8.372;2023-08-07T06:14:00;13.20;99.90
12434;DHT22;6281;49.038;8.372;2023-08-07T06:16:27;13.20;99.90
12434;DHT22;6281;49.038;8.372;2023-08-07T06:18:54;13.30;99.90
12434;DHT22;6281;49.038;8.372;2023-08-07T06:21:21;13.20;99.90
12434;DHT22;6281;49.038;8.372;2023-08-07T06:23:48;13.30;99.90
12434;DHT22;6281;49.038;8.372;2023-08-07T06:26:16;13.30;99.90
12434;DHT22;6281;49.038;8.372;2023-08-07T06:28:44;13.40;99.90
12434;DHT22;6281;49.038;8.372;2023-08-07T06:31:12;13.50;99.90
12434;DHT22;6281;49.038;8.372;2023-08-07T06:33:39;13.60;99.90
12434;DHT22;6281;49.038;8.372;2023-08-07T06:36:06;13.60;99.90
12434;DHT22;6281;49.038;8.372;2023-08-07T06:38:34;13.70;99.90
12434;DHT22;6281;49.038;8.372;2023-08-07T06:41:01;13.70;99.90
12434;DHT22;6281;49.038;8.372;2023-08-07T06:43:29;13.80;99.90
12434;DHT22;6281;49.038;8.372;2023-08-07T06:45:56;13.80;99.90
12434;DHT22;6281;49.038;8.372;2023-08-07T06:48:23;13.80;99.90
12434;DHT22;6281;49.038;8.372;2023-08-07T06:50:50;13.80;99.90
12434;DHT22;6281;49.038;8.372;2023-08-07T06:53:17;14.00;99.90
12434;DHT22;6281;49.038;8.372;2023-08-07T06:55:44;13.90;99.90
12434;DHT22;6281;49.038;8.372;2023-08-07T06:58:11;14.00;99.90
12434;DHT22;6281;49.038;8.372;2023-08-07T07:00:40;14.00;99.90
12434;DHT22;6281;49.038;8.372;2023-08-07T07:03:07;13.90;99.90
12434;DHT22;6281;49.038;8.372;2023-08-07T07:05:35;14.10;99.90
12434;DHT22;6281;49.038;8.372;2023-08-07T07:08:02;14.10;99.90
12434;DHT22;6281;49.038;8.372;2023-08-07T07:10:29;14.10;99.90
12434;DHT22;6281;49.038;8.372;2023-08-07T07:12:56;14.10;99.90
12434;DHT22;6281;49.038;8.372;2023-08-07T07:15:23;14.10;99.90
12434;DHT22;6281;49.038;8.372;2023-08-07T07:17:51;14.20;99.90
12434;DHT22;6281;49.038;8.372;2023-08-07T07:20:18;14.20;99.90
12434;DHT22;6281;49.038;8.372;2023-08-07T07:22:45;14.20;99.90
12434;DHT22;6281;49.038;8.372;2023-08-07T07:25:12;14.20;99.90
12434;DHT22;6281;49.038;8.372;2023-08-07T07:27:39;14.30;99.90
12434;DHT22;6281;49.038;8.372;2023-08-07T07:30:07;14.20;99.90
12434;DHT22;6281;49.038;8.372;2023-08-07T07:32:34;14.30;99.90
12434;DHT22;6281;49.038;8.372;2023-08-07T07:35:03;14.30;99.90
12434;DHT22;6281;49.038;8.372;2023-08-07T07:37:30;14.20;99.90
12434;DHT22;6281;49.038;8.372;2023-08-07T07:39:57;14.30;99.90
12434;DHT22;6281;49.038;8.372;2023-08-07T07:42:24;14.30;99.90
12434;DHT22;6281;49.038;8.372;2023-08-07T07:44:51;14.30;99.90
12434;DHT22;6281;49.038;8.372;2023-08-07T07:47:18;14.40;99.90
12434;DHT22;6281;49.038;8.372;2023-08-07T07:49:46;14.40;99.90
12434;DHT22;6281;49.038;8.372;2023-08-07T07:52:15;14.40;99.90
12434;DHT22;6281;49.038;8.372;2023-08-07T07:54:42;14.50;99.90
12434;DHT22;6281;49.038;8.372;2023-08-07T07:57:09;14.50;99.90
12434;DHT22;6281;49.038;8.372;2023-08-07T07:59:36;14.60;99.90
12434;DHT22;6281;49.038;8.372;2023-08-07T08:02:04;14.70;99.90
12434;DHT22;6281;49.038;8.372;2023-08-07T08:04:31;14.70;99.90
12434;DHT22;6281;49.038;8.372;2023-08-07T08:06:58;14.90;99.90
12434;DHT22;6281;49.038;8.372;2023-08-07T08:09:26;14.70;99.90
12434;DHT22;6281;49.038;8.372;2023-08-07T08:11:53;14.80;99.90
12434;DHT22;6281;49.038;8.372;2023-08-07T08:14:20;14.90;99.90
12434;DHT22;6281;49.038;8.372;2023-08-07T08:16:47;14.70;99.90
12434;DHT22;6281;49.038;8.372;2023-08-07T08:19:14;15.00;99.90
12434;DHT22;6281;49.038;8.372;2023-08-07T08:21:41;15.10;99.90
12434;DHT22;6281;49.038;8.372;2023-08-07T08:24:08;15.30;99.90
12434;DHT22;6281;49.038;8.372;2023-08-07T08:26:37;15.30;99.90
12434;DHT22;6281;49.038;8.372;2023-08-07T08:29:05;15.30;99.90
12434;DHT22;6281;49.038;8.372;2023-08-07T08:31:33;15.50;99.90
12434;DHT22;6281;49.038;8.372;2023-08-07T08:34:00;15.60;99.90
12434;DHT22;6281;49.038;8.372;2023-08-07T08:36:26;15.70;99.90
12434;DHT22;6281;49.038;8.372;2023-08-07T08:38:53;15.60;99.90
12434;DHT22;6281;49.038;8.372;2023-08-07T08:41:21;15.50;99.90
12434;DHT22;6281;49.038;8.372;2023-08-07T08:43:51;16.10;99.90
12434;DHT22;6281;49.038;8.372;2023-08-07T08:46:19;15.90;99.90
12434;DHT22;6281;49.038;8.372;2023-08-07T08:48:50;15.90;99.90
12434;DHT22;6281;49.038;8.372;2023-08-07T08:51:17;16.00;99.90
12434;DHT22;6281;49.038;8.372;2023-08-07T08:53:47;16.40;99.90
12434;DHT22;6281;49.038;8.372;2023-08-07T08:56:15;16.50;99.90
12434;DHT22;6281;49.038;8.372;2023-08-07T08:58:42;16.40;99.90
12434;DHT22;6281;49.038;8.372;2023-08-07T09:01:11;16.20;99.90
12434;DHT22;6281;49.038;8.372;2023-08-07T09:03:39;16.00;99.90
12434;DHT22;6281;49.038;8.372;2023-08-07T09:06:06;16.00;99.90
12434;DHT22;6281;49.038;8.372;2023-08-07T09:08:34;16.10;99.90
12434;DHT22;6281;49.038;8.372;2023-08-07T09:11:02;16.30;99.90
12434;DHT22;6281;49.038;8.372;2023-08-07T09:13:31;16.40;99.90
12434;DHT22;6281;49.038;8.372;2023-08-07T09:16:00;16.40;99.90
12434;DHT22;6281;49.038;8.372;2023-08-07T09:18:29;16.60;99.90
12434;DHT22;6281;49.038;8.372;2023-08-07T09:20:56;16.50;99.90
12434;DHT22;6281;49.038;8.372;2023-08-07T09:23:24;16.50;99.90
12434;DHT22;6281;49.038;8.372;2023-08-07T09:25:59;16.70;99.90
12434;DHT22;6281;49.038;8.372;2023-08-07T09:28:26;16.70;99.90
12434;DHT22;6281;49.038;8.372;2023-08-07T09:30:54;16.80;99.90
12434;DHT22;6281;49.038;8.372;2023-08-07T09:33:24;16.60;99.90
12434;DHT22;6281;49.038;8.372;2023-08-07T09:35:57;16.90;99.90
12434;DHT22;6281;49.038;8.372;2023-08-07T09:38:28;17.10;99.90
12434;DHT22;6281;49.038;8.372;2023-08-07T09:40:57;17.30;99.90
12434;DHT22;6281;49.038;8.372;2023-08-07T09:43:24;17.10;99.90
12434;DHT22;6281;49.038;8.372;2023-08-07T09:45:51;16.80;99.90
12434;DHT22;6281;49.038;8.372;2023-08-07T09:48:23;17.00;99.90
12434;DHT22;6281;49.038;8.372;2023-08-07T09:50:50;16.70;99.90
12434;DHT22;6281;49.038;8.372;2023-08-07T09:53:25;16.80;99.90
12434;DHT22;6281;49.038;8.372;2023-08-07T09:55:52;17.10;99.90
12434;DHT22;6281;49.038;8.372;2023-08-07T09:58:20;16.90;99.90
12434;DHT22;6281;49.038;8.372;2023-08-07T10:00:47;17.00;99.90
12434;DHT22;6281;49.038;8.372;2023-08-07T10:03:14;17.00;99.90
12434;DHT22;6281;49.038;8.372;2023-08-07T10:05:43;17.30;99.90
12434;DHT22;6281;49.038;8.372;2023-08-07T10:08:10;17.20;99.90
12434;DHT22;6281;49.038;8.372;2023-08-07T10:10:39;17.90;99.90
12434;DHT22;6281;49.038;8.372;2023-08-07T10:13:06;18.40;99.90
12434;DHT22;6281;49.038;8.372;2023-08-07T10:15:34;18.40;99.90
12434;DHT22;6281;49.038;8.372;2023-08-07T10:18:01;18.80;99.90
12434;DHT22;6281;49.038;8.372;2023-08-07T10:20:29;18.30;99.90
12434;DHT22;6281;49.038;8.372;2023-08-07T10:23:00;18.80;99.90
12434;DHT22;6281;49.038;8.372;2023-08-07T10:25:28;19.00;99.90
12434;DHT22;6281;49.038;8.372;2023-08-07T10:27:57;18.90;99.90
12434;DHT22;6281;49.038;8.372;2023-08-07T10:30:26;18.30;99.90
12434;DHT22;6281;49.038;8.372;2023-08-07T10:32:54;17.90;99.90
12434;DHT22;6281;49.038;8.372;2023-08-07T10:35:24;18.00;99.90
12434;DHT22;6281;49.038;8.372;2023-08-07T10:37:52;17.90;99.90
12434;DHT22;6281;49.038;8.372;2023-08-07T10:40:20;17.80;99.90
12434;DHT22;6281;49.038;8.372;2023-08-07T10:42:59;17.90;99.90
12434;DHT22;6281;49.038;8.372;2023-08-07T10:45:27;17.90;99.90
12434;DHT22;6281;49.038;8.372;2023-08-07T10:48:02;17.70;99.90
12434;DHT22;6281;49.038;8.372;2023-08-07T10:50:29;17.60;99.90
12434;DHT22;6281;49.038;8.372;2023-08-07T10:53:00;17.50;99.90
12434;DHT22;6281;49.038;8.372;2023-08-07T10:55:31;17.40;99.90
12434;DHT22;6281;49.038;8.372;2023-08-07T10:58:00;17.40;99.90
12434;DHT22;6281;49.038;8.372;2023-08-07T11:00:27;17.20;99.90
12434;DHT22;6281;49.038;8.372;2023-08-07T11:02:54;17.30;99.90
12434;DHT22;6281;49.038;8.372;2023-08-07T11:05:24;17.10;99.90
12434;DHT22;6281;49.038;8.372;2023-08-07T11:07:53;17.10;99.90
12434;DHT22;6281;49.038;8.372;2023-08-07T11:10:20;17.10;99.90
12434;DHT22;6281;49.038;8.372;2023-08-07T11:12:48;17.20;99.90
12434;DHT22;6281;49.038;8.372;2023-08-07T11:15:16;17.20;99.90
12434;DHT22;6281;49.038;8.372;2023-08-07T11:17:43;17.20;99.90
12434;DHT22;6281;49.038;8.372;2023-08-07T11:20:11;17.10;99.90
12434;DHT22;6281;49.038;8.372;2023-08-07T11:22:38;17.20;99.90
12434;DHT22;6281;49.038;8.372;2023-08-07T11:25:07;17.10;99.90
12434;DHT22;6281;49.038;8.372;2023-08-07T11:27:39;17.10;99.90
12434;DHT22;6281;49.038;8.372;2023-08-07T11:30:10;17.00;99.90
12434;DHT22;6281;49.038;8.372;2023-08-07T11:32:38;17.00;99.90
12434;DHT22;6281;49.038;8.372;2023-08-07T11:35:06;17.00;99.90
12434;DHT22;6281;49.038;8.372;2023-08-07T11:37:33;17.10;99.90
12434;DHT22;6281;49.038;8.372;2023-08-07T11:40:01;17.10;99.90
12434;DHT22;6281;49.038;8.372;2023-08-07T11:42:28;17.40;99.90
12434;DHT22;6281;49.038;8.372;2023-08-07T11:44:55;17.50;99.90
12434;DHT22;6281;49.038;8.372;2023-08-07T11:47:22;17.40;99.90
12434;DHT22;6281;49.038;8.372;2023-08-07T11:49:52;17.60;99.90
12434;DHT22;6281;49.038;8.372;2023-08-07T11:52:19;17.80;99.90
12434;DHT22;6281;49.038;8.372;2023-08-07T11:54:47;17.80;99.90
12434;DHT22;6281;49.038;8.372;2023-08-07T11:57:16;17.90;99.90
12434;DHT22;6281;49.038;8.372;2023-08-07T11:59:46;17.90;99.90
12434;DHT22;6281;49.038;8.372;2023-08-07T12:02:13;18.00;99.90
12434;DHT22;6281;49.038;8.372;2023-08-07T12:04:40;18.20;99.90
12434;DHT22;6281;49.038;8.372;2023-08-07T12:07:08;18.50;99.90
12434;DHT22;6281;49.038;8.372;2023-08-07T12:09:36;18.40;99.90
12434;DHT22;6281;49.038;8.372;2023-08-07T12:12:04;18.50;99.90
12434;DHT22;6281;49.038;8.372;2023-08-07T12:14:32;18.70;99.90
12434;DHT22;6281;49.038;8.372;2023-08-07T12:17:01;18.70;99.90
12434;DHT22;6281;49.038;8.372;2023-08-07T12:19:38;18.90;99.90
12434;DHT22;6281;49.038;8.372;2023-08-07T12:22:10;19.00;99.90
12434;DHT22;6281;49.038;8.372;2023-08-07T12:24:37;18.80;99.90
12434;DHT22;6281;49.038;8.372;2023-08-07T12:27:05;19.60;99.90
12434;DHT22;6281;49.038;8.372;2023-08-07T12:29:32;19.30;99.90
12434;DHT22;6281;49.038;8.372;2023-08-07T12:31:58;19.10;99.90
12434;DHT22;6281;49.038;8.372;2023-08-07T12:34:26;19.50;99.90
12434;DHT22;6281;49.038;8.372;2023-08-07T12:36:53;20.30;99.90
12434;DHT22;6281;49.038;8.372;2023-08-07T12:39:21;20.80;99.90
12434;DHT22;6281;49.038;8.372;2023-08-07T12:41:48;20.80;99.90
12434;DHT22;6281;49.038;8.372;2023-08-07T12:44:15;20.40;99.90
12434;DHT22;6281;49.038;8.372;2023-08-07T12:46:42;19.90;99.90
12434;DHT22;6281;49.038;8.372;2023-08-07T12:49:09;19.60;99.90
12434;DHT22;6281;49.038;8.372;2023-08-07T12:51:35;19.80;99.90
12434;DHT22;6281;49.038;8.372;2023-08-07T12:54:02;20.10;99.90
12434;DHT22;6281;49.038;8.372;2023-08-07T12:56:30;20.30;99.90
12434;DHT22;6281;49.038;8.372;2023-08-07T12:58:57;20.50;99.90
12434;DHT22;6281;49.038;8.372;2023-08-07T13:01:24;20.30;99.90
12434;DHT22;6281;49.038;8.372;2023-08-07T13:03:52;20.30;99.90
12434;DHT22;6281;49.038;8.372;2023-08-07T13:06:19;19.80;99.90
12434;DHT22;6281;49.038;8.372;2023-08-07T13:08:46;19.60;99.90
12434;DHT22;6281;49.038;8.372;2023-08-07T13:11:12;19.30;99.90
12434;DHT22;6281;49.038;8.372;2023-08-07T13:13:40;19.10;99.90
12434;DHT22;6281;49.038;8.372;2023-08-07T13:16:07;19.40;99.90
12434;DHT22;6281;49.038;8.372;2023-08-07T13:18:34;19.30;99.90
12434;DHT22;6281;49.038;8.372;2023-08-07T13:21:01;19.30;99.90
12434;DHT22;6281;49.038;8.372;2023-08-07T13:23:27;19.30;99.90
12434;DHT22;6281;49.038;8.372;2023-08-07T13:25:54;19.50;99.90
12434;DHT22;6281;49.038;8.372;2023-08-07T13:28:21;21.10;99.20
12434;DHT22;6281;49.038;8.372;2023-08-07T13:30:49;21.90;94.90
12434;DHT22;6281;49.038;8.372;2023-08-07T13:33:17;21.80;90.00
12434;DHT22;6281;49.038;8.372;2023-08-07T13:35:45;21.50;83.90
12434;DHT22;6281;49.038;8.372;2023-08-07T13:38:12;20.90;91.60
12434;DHT22;6281;49.038;8.372;2023-08-07T13:40:40;20.00;92.40
12434;DHT22;6281;49.038;8.372;2023-08-07T13:43:09;19.60;99.40
12434;DHT22;6281;49.038;8.372;2023-08-07T13:45:36;19.50;99.90
12434;DHT22;6281;49.038;8.372;2023-08-07T13:48:05;19.30;99.90
12434;DHT22;6281;49.038;8.372;2023-08-07T13:50:34;19.00;99.90
12434;DHT22;6281;49.038;8.372;2023-08-07T13:53:03;19.00;99.90
12434;DHT22;6281;49.038;8.372;2023-08-07T13:55:29;18.80;99.90
12434;DHT22;6281;49.038;8.372;2023-08-07T13:57:56;18.90;99.90
12434;DHT22;6281;49.038;8.372;2023-08-07T14:00:23;19.00;99.90
12434;DHT22;6281;49.038;8.372;2023-08-07T14:02:50;19.30;99.90
12434;DHT22;6281;49.038;8.372;2023-08-07T14:05:18;20.00;99.90
12434;DHT22;6281;49.038;8.372;2023-08-07T14:07:45;20.70;99.90
12434;DHT22;6281;49.038;8.372;2023-08-07T14:10:11;20.10;99.90
12434;DHT22;6281;49.038;8.372;2023-08-07T14:12:38;19.80;99.90
12434;DHT22;6281;49.038;8.372;2023-08-07T14:15:23;20.30;99.90
12434;DHT22;6281;49.038;8.372;2023-08-07T14:18:22;20.20;99.90
12434;DHT22;6281;49.038;8.372;2023-08-07T14:24:54;19.60;99.90
12434;DHT22;6281;49.038;8.372;2023-08-07T14:27:30;19.30;99.90
12434;DHT22;6281;49.038;8.372;2023-08-07T14:29:57;19.40;99.90
12434;DHT22;6281;49.038;8.372;2023-08-07T14:32:24;19.30;99.90
12434;DHT22;6281;49.038;8.372;2023-08-07T14:34:51;19.90;99.90
12434;DHT22;6281;49.038;8.372;2023-08-07T14:37:18;19.60;99.90
12434;DHT22;6281;49.038;8.372;2023-08-07T14:39:46;19.50;99.90
12434;DHT22;6281;49.038;8.372;2023-08-07T14:42:13;19.40;99.90
12434;DHT22;6281;49.038;8.372;2023-08-07T14:44:40;20.20;99.90
12434;DHT22;6281;49.038;8.372;2023-08-07T14:47:06;20.80;99.90
12434;DHT22;6281;49.038;8.372;2023-08-07T14:49:33;21.10;99.90
12434;DHT22;6281;49.038;8.372;2023-08-07T14:52:00;21.00;99.90
12434;DHT22;6281;49.038;8.372;2023-08-07T14:54:27;21.80;99.90
12434;DHT22;6281;49.038;8.372;2023-08-07T14:56:55;21.20;99.90
12434;DHT22;6281;49.038;8.372;2023-08-07T14:59:23;20.60;99.90
12434;DHT22;6281;49.038;8.372;2023-08-07T15:01:50;21.30;99.90
12434;DHT22;6281;49.038;8.372;2023-08-07T15:04:17;21.30;99.90
12434;DHT22;6281;49.038;8.372;2023-08-07T15:06:44;20.80;99.90
12434;DHT22;6281;49.038;8.372;2023-08-07T15:09:13;22.20;99.90
12434;DHT22;6281;49.038;8.372;2023-08-07T15:11:40;22.20;99.90
12434;DHT22;6281;49.038;8.372;2023-08-07T15:14:08;21.50;99.90
12434;DHT22;6281;49.038;8.372;2023-08-07T15:16:35;22.10;99.90
12434;DHT22;6281;49.038;8.372;2023-08-07T15:19:02;21.20;99.90
12434;DHT22;6281;49.038;8.372;2023-08-07T15:21:29;20.90;99.90
12434;DHT22;6281;49.038;8.372;2023-08-07T15:23:56;20.70;99.90
12434;DHT22;6281;49.038;8.372;2023-08-07T15:26:23;20.50;99.90
12434;DHT22;6281;49.038;8.372;2023-08-07T15:28:50;21.10;99.90
12434;DHT22;6281;49.038;8.372;2023-08-07T15:31:18;20.80;99.90
12434;DHT22;6281;49.038;8.372;2023-08-07T15:33:45;20.50;99.90
12434;DHT22;6281;49.038;8.372;2023-08-07T15:36:14;20.50;99.90
12434;DHT22;6281;49.038;8.372;2023-08-07T15:38:41;20.30;99.90
12434;DHT22;6281;49.038;8.372;2023-08-07T15:41:09;20.10;99.90
12434;DHT22;6281;49.038;8.372;2023-08-07T15:43:36;20.20;99.90
12434;DHT22;6281;49.038;8.372;2023-08-07T15:46:03;20.30;99.90
12434;DHT22;6281;49.038;8.372;2023-08-07T15:48:31;20.60;99.90
12434;DHT22;6281;49.038;8.372;2023-08-07T15:50:58;21.00;99.90
12434;DHT22;6281;49.038;8.372;2023-08-07T15:53:25;21.40;99.90